Mount Union, Texas
Current Conditions -  °F | °C
As of 10:55 AM on Friday 24 Oct 2014 (Local Time) from KJAS Reporting Station
Clear Clear  
Wind Chill: 64°   Ceiling: Unl
Heat Index: 64°   Visibility: 10mi
Dew Point: 51°   Wind: 5mph
Humidity: 61%   Direction: 10°N
Pressure: 30.21"   Gusts: NA
Location:  30.7133°N, 93.9985°W
Report Text: KJAS 241555Z AUTO 01004KT 10SM CLR 18/10 A3021 RMK AO2 T01780103
Loading
Personal Weather Stations






























Interactive Weather Map
Tropical Storm Tracking
New forecast layout! Learn more

10-Day Weather Forecast

Advertisements
Track Severe Weather on mobile